sensor_id;sensor_type;location;lat;lon;timestamp;pressure;altitude;pressure_sealevel;temperature;humidity
70781;BME280;59514;48.810;2.134;2022-11-09T00:01:27;99525.50;;;13.37;92.00
70781;BME280;59514;48.810;2.134;2022-11-09T00:03:54;99537.38;;;13.36;91.93
70781;BME280;59514;48.810;2.134;2022-11-09T00:06:20;99529.81;;;13.33;93.88
70781;BME280;59514;48.810;2.134;2022-11-09T00:08:45;99517.38;;;13.27;95.13
70781;BME280;59514;48.810;2.134;2022-11-09T00:11:11;99523.28;;;13.19;96.35
70781;BME280;59514;48.810;2.134;2022-11-09T00:13:41;99526.78;;;13.19;96.42
70781;BME280;59514;48.810;2.134;2022-11-09T00:16:08;99520.34;;;13.20;96.84
70781;BME280;59514;48.810;2.134;2022-11-09T00:18:35;99516.78;;;13.15;97.03
70781;BME280;59514;48.810;2.134;2022-11-09T00:21:08;99501.16;;;13.12;97.99
70781;BME280;59514;48.810;2.134;2022-11-09T00:23:34;99481.19;;;13.13;97.75
70781;BME280;59514;48.810;2.134;2022-11-09T00:26:10;99457.22;;;13.11;97.65
70781;BME280;59514;48.810;2.134;2022-11-09T00:28:37;99455.84;;;13.09;96.69
70781;BME280;59514;48.810;2.134;2022-11-09T00:31:18;99459.38;;;13.09;97.35
70781;BME280;59514;48.810;2.134;2022-11-09T00:33:47;99463.94;;;13.09;97.24
70781;BME280;59514;48.810;2.134;2022-11-09T00:36:13;99464.47;;;13.11;96.86
70781;BME280;59514;48.810;2.134;2022-11-09T00:38:39;99477.41;;;13.09;97.56
70781;BME280;59514;48.810;2.134;2022-11-09T00:41:06;99471.75;;;13.05;96.77
70781;BME280;59514;48.810;2.134;2022-11-09T00:43:32;99474.44;;;13.05;97.15
70781;BME280;59514;48.810;2.134;2022-11-09T00:45:58;99477.31;;;12.98;97.73
70781;BME280;59514;48.810;2.134;2022-11-09T00:48:23;99470.28;;;12.92;96.84
70781;BME280;59514;48.810;2.134;2022-11-09T00:50:53;99477.88;;;12.95;96.99
70781;BME280;59514;48.810;2.134;2022-11-09T00:53:19;99482.44;;;12.95;97.00
70781;BME280;59514;48.810;2.134;2022-11-09T00:55:53;99492.66;;;12.93;97.44
70781;BME280;59514;48.810;2.134;2022-11-09T00:58:18;99489.41;;;12.91;97.28
70781;BME280;59514;48.810;2.134;2022-11-09T01:00:43;99485.91;;;12.90;97.10
70781;BME280;59514;48.810;2.134;2022-11-09T01:03:09;99484.03;;;12.86;97.16
70781;BME280;59514;48.810;2.134;2022-11-09T01:05:36;99493.72;;;12.87;97.26
70781;BME280;59514;48.810;2.134;2022-11-09T01:08:04;99492.91;;;12.86;96.94
70781;BME280;59514;48.810;2.134;2022-11-09T01:10:29;99499.09;;;12.82;97.38
70781;BME280;59514;48.810;2.134;2022-11-09T01:12:55;99495.06;;;12.84;97.88
70781;BME280;59514;48.810;2.134;2022-11-09T01:15:20;99500.69;;;12.83;97.89
70781;BME280;59514;48.810;2.134;2022-11-09T01:17:45;99495.28;;;12.78;96.91
70781;BME280;59514;48.810;2.134;2022-11-09T01:20:12;99502.00;;;12.75;96.80
70781;BME280;59514;48.810;2.134;2022-11-09T01:22:37;99507.91;;;12.72;97.64
70781;BME280;59514;48.810;2.134;2022-11-09T01:25:03;99509.50;;;12.68;97.46
70781;BME280;59514;48.810;2.134;2022-11-09T01:27:28;99514.91;;;12.68;97.03
70781;BME280;59514;48.810;2.134;2022-11-09T01:29:54;99512.19;;;12.68;97.03
70781;BME280;59514;48.810;2.134;2022-11-09T01:32:19;99520.84;;;12.70;96.70
70781;BME280;59514;48.810;2.134;2022-11-09T01:34:44;99534.25;;;12.65;97.14
70781;BME280;59514;48.810;2.134;2022-11-09T01:37:10;99533.66;;;12.58;96.89
70781;BME280;59514;48.810;2.134;2022-11-09T01:39:35;99530.41;;;12.56;96.85
70781;BME280;59514;48.810;2.134;2022-11-09T01:42:00;99536.59;;;12.57;96.15
70781;BME280;59514;48.810;2.134;2022-11-09T01:44:26;99546.59;;;12.56;96.33
70781;BME280;59514;48.810;2.134;2022-11-09T01:47:03;99539.00;;;12.53;96.81
70781;BME280;59514;48.810;2.134;2022-11-09T01:52:29;99552.38;;;12.43;96.18
70781;BME280;59514;48.810;2.134;2022-11-09T01:55:11;99563.97;;;12.44;95.66
70781;BME280;59514;48.810;2.134;2022-11-09T01:57:42;99567.22;;;12.46;96.11
70781;BME280;59514;48.810;2.134;2022-11-09T02:00:10;99565.91;;;12.48;95.97
70781;BME280;59514;48.810;2.134;2022-11-09T02:02:37;99559.41;;;12.44;95.67
70781;BME280;59514;48.810;2.134;2022-11-09T02:05:08;99555.88;;;12.39;95.38
70781;BME280;59514;48.810;2.134;2022-11-09T02:07:36;99565.28;;;12.41;95.59
70781;BME280;59514;48.810;2.134;2022-11-09T02:12:43;99564.16;;;12.32;95.59
70781;BME280;59514;48.810;2.134;2022-11-09T02:15:09;99565.72;;;12.28;96.17
70781;BME280;59514;48.810;2.134;2022-11-09T02:17:36;99568.41;;;12.28;96.13
70781;BME280;59514;48.810;2.134;2022-11-09T02:20:13;99557.09;;;12.26;96.22
70781;BME280;59514;48.810;2.134;2022-11-09T02:22:39;99561.63;;;12.21;96.65
70781;BME280;59514;48.810;2.134;2022-11-09T02:25:06;99556.78;;;12.23;96.39
70781;BME280;59514;48.810;2.134;2022-11-09T02:27:33;99545.22;;;12.22;96.12
70781;BME280;59514;48.810;2.134;2022-11-09T02:29:59;99551.09;;;12.19;96.10
70781;BME280;59514;48.810;2.134;2022-11-09T02:32:27;99547.84;;;12.17;96.42
70781;BME280;59514;48.810;2.134;2022-11-09T02:34:53;99554.25;;;12.11;96.92
70781;BME280;59514;48.810;2.134;2022-11-09T02:37:34;99549.41;;;12.13;96.21
70781;BME280;59514;48.810;2.134;2022-11-09T02:40:05;99548.84;;;12.11;96.34
70781;BME280;59514;48.810;2.134;2022-11-09T02:42:31;99563.88;;;12.07;96.12
70781;BME280;59514;48.810;2.134;2022-11-09T02:44:58;99561.72;;;12.04;95.60
70781;BME280;59514;48.810;2.134;2022-11-09T02:47:24;99568.66;;;12.00;95.36
70781;BME280;59514;48.810;2.134;2022-11-09T02:49:50;99561.34;;;11.95;96.02
70781;BME280;59514;48.810;2.134;2022-11-09T02:52:16;99565.94;;;11.95;95.79
70781;BME280;59514;48.810;2.134;2022-11-09T02:54:41;99572.88;;;11.91;95.52
70781;BME280;59514;48.810;2.134;2022-11-09T02:57:07;99578.31;;;11.96;94.82
70781;BME280;59514;48.810;2.134;2022-11-09T02:59:32;99580.69;;;11.92;94.62
70781;BME280;59514;48.810;2.134;2022-11-09T03:01:57;99586.81;;;11.88;94.79
70781;BME280;59514;48.810;2.134;2022-11-09T03:04:23;99586.53;;;11.84;94.96
70781;BME280;59514;48.810;2.134;2022-11-09T03:06:48;99581.97;;;11.85;95.03
70781;BME280;59514;48.810;2.134;2022-11-09T03:09:14;99582.47;;;11.82;95.09
70781;BME280;59514;48.810;2.134;2022-11-09T03:11:40;99578.94;;;11.81;95.08
70781;BME280;59514;48.810;2.134;2022-11-09T03:14:06;99568.44;;;11.80;94.60
70781;BME280;59514;48.810;2.134;2022-11-09T03:16:31;99562.22;;;11.74;94.48
70781;BME280;59514;48.810;2.134;2022-11-09T03:18:57;99566.22;;;11.72;94.64
70781;BME280;59514;48.810;2.134;2022-11-09T03:21:23;99565.09;;;11.68;94.61
70781;BME280;59514;48.810;2.134;2022-11-09T03:23:48;99570.75;;;11.71;94.38
70781;BME280;59514;48.810;2.134;2022-11-09T03:26:14;99569.63;;;11.67;94.28
70781;BME280;59514;48.810;2.134;2022-11-09T03:28:40;99573.31;;;11.61;94.69
70781;BME280;59514;48.810;2.134;2022-11-09T03:31:05;99577.13;;;11.65;94.63
70781;BME280;59514;48.810;2.134;2022-11-09T03:33:31;99577.13;;;11.65;94.47
70781;BME280;59514;48.810;2.134;2022-11-09T03:35:56;99577.13;;;11.65;94.22
70781;BME280;59514;48.810;2.134;2022-11-09T03:38:22;99572.59;;;11.66;93.81
70781;BME280;59514;48.810;2.134;2022-11-09T03:40:47;99576.75;;;11.57;94.56
70781;BME280;59514;48.810;2.134;2022-11-09T03:43:12;99582.50;;;11.65;94.28
70781;BME280;59514;48.810;2.134;2022-11-09T03:45:38;99590.38;;;11.67;93.38
70781;BME280;59514;48.810;2.134;2022-11-09T03:48:03;99589.66;;;11.55;94.02
70781;BME280;59514;48.810;2.134;2022-11-09T03:50:31;99586.81;;;11.45;95.05
70781;BME280;59514;48.810;2.134;2022-11-09T03:52:57;99583.56;;;11.43;95.26
70781;BME280;59514;48.810;2.134;2022-11-09T03:55:23;99589.50;;;11.45;94.92
70781;BME280;59514;48.810;2.134;2022-11-09T03:57:48;99600.31;;;11.50;94.67
70781;BME280;59514;48.810;2.134;2022-11-09T04:00:16;99593.63;;;11.52;94.07
70781;BME280;59514;48.810;2.134;2022-11-09T04:02:42;99593.59;;;11.47;94.30
70781;BME280;59514;48.810;2.134;2022-11-09T04:05:08;99599.31;;;11.56;94.06
70781;BME280;59514;48.810;2.134;2022-11-09T04:07:34;99603.00;;;11.50;94.10
70781;BME280;59514;48.810;2.134;2022-11-09T04:10:00;99606.19;;;11.47;94.60
70781;BME280;59514;48.810;2.134;2022-11-09T04:12:25;99604.56;;;11.46;94.60
70781;BME280;59514;48.810;2.134;2022-11-09T04:14:51;99612.06;;;11.44;94.73
70781;BME280;59514;48.810;2.134;2022-11-09T04:17:16;99611.28;;;11.43;94.05
70781;BME280;59514;48.810;2.134;2022-11-09T04:19:41;99609.88;;;11.41;94.30
70781;BME280;59514;48.810;2.134;2022-11-09T04:22:06;99616.41;;;11.45;94.37
70781;BME280;59514;48.810;2.134;2022-11-09T04:24:32;99617.94;;;11.41;94.25
70781;BME280;59514;48.810;2.134;2022-11-09T04:26:57;99621.38;;;11.36;94.74
70781;BME280;59514;48.810;2.134;2022-11-09T04:29:23;99627.56;;;11.37;95.07
70781;BME280;59514;48.810;2.134;2022-11-09T04:31:48;99628.38;;;11.37;94.71
70781;BME280;59514;48.810;2.134;2022-11-09T04:34:14;99625.44;;;11.39;94.64
70781;BME280;59514;48.810;2.134;2022-11-09T04:36:40;99627.63;;;11.42;94.20
70781;BME280;59514;48.810;2.134;2022-11-09T04:39:05;99630.56;;;11.40;94.59
70781;BME280;59514;48.810;2.134;2022-11-09T04:41:30;99623.81;;;11.38;94.24
70781;BME280;59514;48.810;2.134;2022-11-09T04:43:56;99627.88;;;11.40;94.79
70781;BME280;59514;48.810;2.134;2022-11-09T04:46:21;99644.81;;;11.41;94.72
70781;BME280;59514;48.810;2.134;2022-11-09T04:48:46;99637.34;;;11.43;94.43
70781;BME280;59514;48.810;2.134;2022-11-09T04:51:11;99634.34;;;11.39;94.21
70781;BME280;59514;48.810;2.134;2022-11-09T04:53:37;99640.88;;;11.48;94.48
70781;BME280;59514;48.810;2.134;2022-11-09T04:56:04;99638.94;;;11.44;94.72
70781;BME280;59514;48.810;2.134;2022-11-09T04:58:29;99644.88;;;11.46;94.32
70781;BME280;59514;48.810;2.134;2022-11-09T05:01:01;99636.03;;;11.45;94.59
70781;BME280;59514;48.810;2.134;2022-11-09T05:03:26;99633.56;;;11.44;94.67
70781;BME280;59514;48.810;2.134;2022-11-09T05:05:51;99638.94;;;11.44;94.59
70781;BME280;59514;48.810;2.134;2022-11-09T05:08:17;99644.09;;;11.45;94.54
70781;BME280;59514;48.810;2.134;2022-11-09T05:10:42;99645.44;;;11.48;94.19
70781;BME280;59514;48.810;2.134;2022-11-09T05:13:10;99639.84;;;11.49;94.25
70781;BME280;59514;48.810;2.134;2022-11-09T05:15:36;99633.69;;;11.54;94.59
70781;BME280;59514;48.810;2.134;2022-11-09T05:18:03;99632.91;;;11.53;94.53
70781;BME280;59514;48.810;2.134;2022-11-09T05:20:28;99635.34;;;11.55;95.08
70781;BME280;59514;48.810;2.134;2022-11-09T05:22:54;99646.34;;;11.53;94.87
70781;BME280;59514;48.810;2.134;2022-11-09T05:25:39;99658.47;;;11.56;95.29
70781;BME280;59514;48.810;2.134;2022-11-09T05:28:05;99650.34;;;11.51;95.84
70781;BME280;59514;48.810;2.134;2022-11-09T05:30:30;99638.50;;;11.52;95.60
70781;BME280;59514;48.810;2.134;2022-11-09T05:32:55;99646.34;;;11.53;95.66
70781;BME280;59514;48.810;2.134;2022-11-09T05:35:21;99639.59;;;11.51;96.18
70781;BME280;59514;48.810;2.134;2022-11-09T05:37:47;99640.72;;;11.55;95.75
70781;BME280;59514;48.810;2.134;2022-11-09T05:40:14;99659.03;;;11.58;96.29
70781;BME280;59514;48.810;2.134;2022-11-09T05:42:39;99652.78;;;11.52;96.35
70781;BME280;59514;48.810;2.134;2022-11-09T05:45:07;99652.53;;;11.54;96.70
70781;BME280;59514;48.810;2.134;2022-11-09T05:47:36;99664.34;;;11.53;96.78
70781;BME280;59514;48.810;2.134;2022-11-09T05:50:02;99658.47;;;11.56;96.60
70781;BME280;59514;48.810;2.134;2022-11-09T05:52:28;99663.06;;;11.55;96.55
70781;BME280;59514;48.810;2.134;2022-11-09T05:54:53;99667.28;;;11.51;96.92
70781;BME280;59514;48.810;2.134;2022-11-09T05:57:18;99666.78;;;11.54;96.85
70781;BME280;59514;48.810;2.134;2022-11-09T05:59:44;99666.16;;;11.47;97.59
70781;BME280;59514;48.810;2.134;2022-11-09T06:02:09;99673.97;;;11.49;97.23
70781;BME280;59514;48.810;2.134;2022-11-09T06:04:35;99674.53;;;11.51;97.53
70781;BME280;59514;48.810;2.134;2022-11-09T06:07:00;99672.66;;;11.51;97.69
70781;BME280;59514;48.810;2.134;2022-11-09T06:09:26;99680.47;;;11.53;98.11
70781;BME280;59514;48.810;2.134;2022-11-09T06:11:52;99675.94;;;11.53;98.31
70781;BME280;59514;48.810;2.134;2022-11-09T06:14:17;99675.94;;;11.53;98.02
70781;BME280;59514;48.810;2.134;2022-11-09T06:16:42;99675.09;;;11.53;98.34
70781;BME280;59514;48.810;2.134;2022-11-09T06:19:08;99679.34;;;11.49;98.54
70781;BME280;59514;48.810;2.134;2022-11-09T06:21:33;99677.22;;;11.51;98.63
70781;BME280;59514;48.810;2.134;2022-11-09T06:23:58;99682.09;;;11.54;98.75
70781;BME280;59514;48.810;2.134;2022-11-09T06:26:24;99683.16;;;11.53;99.03
70781;BME280;59514;48.810;2.134;2022-11-09T06:28:49;99681.63;;;11.57;98.99
70781;BME280;59514;48.810;2.134;2022-11-09T06:31:15;99684.31;;;11.57;98.82
70781;BME280;59514;48.810;2.134;2022-11-09T06:33:41;99688.03;;;11.56;99.48
70781;BME280;59514;48.810;2.134;2022-11-09T06:36:08;99691.84;;;11.60;98.96
70781;BME280;59514;48.810;2.134;2022-11-09T06:38:33;99690.16;;;11.54;99.60
70781;BME280;59514;48.810;2.134;2022-11-09T06:40:59;99687.47;;;11.54;100.00
70781;BME280;59514;48.810;2.134;2022-11-09T06:43:25;99699.31;;;11.53;99.88
70781;BME280;59514;48.810;2.134;2022-11-09T06:45:51;99702.81;;;11.53;100.00
70781;BME280;59514;48.810;2.134;2022-11-09T06:48:16;99702.31;;;11.56;99.64
70781;BME280;59514;48.810;2.134;2022-11-09T06:50:42;99701.00;;;11.59;100.00
70781;BME280;59514;48.810;2.134;2022-11-09T06:53:10;99722.50;;;11.59;99.85
70781;BME280;59514;48.810;2.134;2022-11-09T06:55:36;99713.38;;;11.60;100.00
70781;BME280;59514;48.810;2.134;2022-11-09T06:58:06;99725.25;;;11.64;99.44
70781;BME280;59514;48.810;2.134;2022-11-09T07:00:32;99723.16;;;11.66;99.80
70781;BME280;59514;48.810;2.134;2022-11-09T07:02:57;99727.00;;;11.70;99.33
70781;BME280;59514;48.810;2.134;2022-11-09T07:05:23;99734.00;;;11.71;99.57
70781;BME280;59514;48.810;2.134;2022-11-09T07:07:48;99749.16;;;11.77;99.32
70781;BME280;59514;48.810;2.134;2022-11-09T07:10:14;99738.97;;;11.79;98.84
70781;BME280;59514;48.810;2.134;2022-11-09T07:12:40;99748.66;;;11.80;98.42
70781;BME280;59514;48.810;2.134;2022-11-09T07:15:05;99755.66;;;11.81;98.63
70781;BME280;59514;48.810;2.134;2022-11-09T07:17:32;99752.97;;;11.81;98.81
70781;BME280;59514;48.810;2.134;2022-11-09T07:19:58;99756.22;;;11.83;98.66
70781;BME280;59514;48.810;2.134;2022-11-09T07:22:23;99757.28;;;11.82;98.59
70781;BME280;59514;48.810;2.134;2022-11-09T07:24:50;99765.91;;;11.84;98.81
70781;BME280;59514;48.810;2.134;2022-11-09T07:27:16;99761.63;;;11.83;99.11
70781;BME280;59514;48.810;2.134;2022-11-09T07:29:41;99774.56;;;11.86;99.39
70781;BME280;59514;48.810;2.134;2022-11-09T07:32:07;99769.75;;;11.88;99.06
70781;BME280;59514;48.810;2.134;2022-11-09T07:34:32;99768.69;;;11.89;99.28
70781;BME280;59514;48.810;2.134;2022-11-09T07:36:57;99779.19;;;11.90;98.83
70781;BME280;59514;48.810;2.134;2022-11-09T07:39:23;99779.19;;;11.90;99.21
70781;BME280;59514;48.810;2.134;2022-11-09T07:41:48;99780.25;;;11.89;99.10
70781;BME280;59514;48.810;2.134;2022-11-09T07:44:14;99782.44;;;11.92;98.82
70781;BME280;59514;48.810;2.134;2022-11-09T07:46:46;99778.47;;;11.95;99.13
70781;BME280;59514;48.810;2.134;2022-11-09T07:49:13;99785.41;;;11.91;99.36
70781;BME280;59514;48.810;2.134;2022-11-09T07:51:39;99790.28;;;11.94;99.07
70781;BME280;59514;48.810;2.134;2022-11-09T07:54:04;99792.47;;;11.97;99.22
70781;BME280;59514;48.810;2.134;2022-11-09T07:56:30;99803.16;;;11.92;99.25
70781;BME280;59514;48.810;2.134;2022-11-09T07:58:55;99806.91;;;11.91;99.76
70781;BME280;59514;48.810;2.134;2022-11-09T08:01:21;99807.97;;;11.90;99.73
70781;BME280;59514;48.810;2.134;2022-11-09T08:03:46;99803.25;;;11.97;99.78
70781;BME280;59514;48.810;2.134;2022-11-09T08:06:11;99806.72;;;11.97;99.70
70781;BME280;59514;48.810;2.134;2022-11-09T08:08:37;99804.28;;;11.96;99.80
70781;BME280;59514;48.810;2.134;2022-11-09T08:11:02;99806.97;;;11.96;100.00
70781;BME280;59514;48.810;2.134;2022-11-09T08:13:27;99800.03;;;12.00;99.70
70781;BME280;59514;48.810;2.134;2022-11-09T08:15:53;99803.31;;;12.02;99.71
70781;BME280;59514;48.810;2.134;2022-11-09T08:18:19;99809.25;;;12.04;99.56
70781;BME280;59514;48.810;2.134;2022-11-09T08:20:45;99804.44;;;12.06;99.67
70781;BME280;59514;48.810;2.134;2022-11-09T08:23:12;99806.03;;;12.07;99.29
70781;BME280;59514;48.810;2.134;2022-11-09T08:25:38;99813.38;;;12.11;99.04
70781;BME280;59514;48.810;2.134;2022-11-09T08:28:03;99817.19;;;12.16;98.75
70781;BME280;59514;48.810;2.134;2022-11-09T08:30:29;99823.81;;;12.25;98.50
70781;BME280;59514;48.810;2.134;2022-11-09T08:32:55;99825.59;;;12.19;98.70
70781;BME280;59514;48.810;2.134;2022-11-09T08:35:22;99826.72;;;12.23;98.60
70781;BME280;59514;48.810;2.134;2022-11-09T08:37:49;99827.06;;;12.27;98.19
70781;BME280;59514;48.810;2.134;2022-11-09T08:40:17;99825.72;;;12.29;98.32
70781;BME280;59514;48.810;2.134;2022-11-09T08:42:43;99833.81;;;12.29;98.28
70781;BME280;59514;48.810;2.134;2022-11-09T08:45:09;99838.69;;;12.32;98.23
70781;BME280;59514;48.810;2.134;2022-11-09T08:47:34;99839.56;;;12.38;97.52
70781;BME280;59514;48.810;2.134;2022-11-09T08:50:01;99844.66;;;12.34;97.25
70781;BME280;59514;48.810;2.134;2022-11-09T08:52:28;99850.66;;;12.41;97.09
70781;BME280;59514;48.810;2.134;2022-11-09T08:54:53;99855.31;;;12.46;96.62
70781;BME280;59514;48.810;2.134;2022-11-09T08:57:19;99850.78;;;12.51;96.01
70781;BME280;59514;48.810;2.134;2022-11-09T08:59:45;99858.38;;;12.54;96.15
70781;BME280;59514;48.810;2.134;2022-11-09T09:02:11;99862.19;;;12.58;96.58
70781;BME280;59514;48.810;2.134;2022-11-09T09:04:37;99860.06;;;12.60;95.92
70781;BME280;59514;48.810;2.134;2022-11-09T09:07:02;99871.72;;;12.66;95.79
70781;BME280;59514;48.810;2.134;2022-11-09T09:09:27;99867.06;;;12.61;95.68
70781;BME280;59514;48.810;2.134;2022-11-09T09:11:53;99870.97;;;12.70;95.33
70781;BME280;59514;48.810;2.134;2022-11-09T09:14:18;99871.53;;;12.72;94.75
70781;BME280;59514;48.810;2.134;2022-11-09T09:16:43;99873.41;;;12.72;95.65
70781;BME280;59514;48.810;2.134;2022-11-09T09:19:09;99866.72;;;12.74;95.08
70781;BME280;59514;48.810;2.134;2022-11-09T09:21:34;99869.47;;;12.79;93.63
70781;BME280;59514;48.810;2.134;2022-11-09T09:24:00;99874.59;;;12.81;94.05
70781;BME280;59514;48.810;2.134;2022-11-09T09:26:25;99881.31;;;12.78;92.63
70781;BME280;59514;48.810;2.134;2022-11-09T09:28:50;99877.53;;;12.79;92.93
70781;BME280;59514;48.810;2.134;2022-11-09T09:31:16;99885.13;;;12.82;92.68
70781;BME280;59514;48.810;2.134;2022-11-09T09:33:42;99889.44;;;12.83;91.78
70781;BME280;59514;48.810;2.134;2022-11-09T09:36:11;99902.72;;;12.90;92.45
70781;BME280;59514;48.810;2.134;2022-11-09T09:38:39;99892.13;;;12.83;92.15
70781;BME280;59514;48.810;2.134;2022-11-09T09:41:05;99897.09;;;12.91;91.76
70781;BME280;59514;48.810;2.134;2022-11-09T09:43:38;99890.94;;;12.96;91.25
70781;BME280;59514;48.810;2.134;2022-11-09T09:46:11;99904.34;;;12.91;90.09
70781;BME280;59514;48.810;2.134;2022-11-09T09:48:45;99900.03;;;12.90;89.48
70781;BME280;59514;48.810;2.134;2022-11-09T09:53:52;99904.91;;;12.93;89.82
70781;BME280;59514;48.810;2.134;2022-11-09T09:59:22;99916.06;;;13.02;89.30
70781;BME280;59514;48.810;2.134;2022-11-09T10:01:48;99912.09;;;13.04;88.06
70781;BME280;59514;48.810;2.134;2022-11-09T10:04:20;99920.78;;;13.11;87.90
70781;BME280;59514;48.810;2.134;2022-11-09T10:07:09;99928.31;;;13.09;88.62
70781;BME280;59514;48.810;2.134;2022-11-09T10:13:01;99937.59;;;13.18;88.28
70781;BME280;59514;48.810;2.134;2022-11-09T10:15:44;99952.94;;;13.18;88.56
70781;BME280;59514;48.810;2.134;2022-11-09T10:20:52;99955.38;;;13.19;87.73
70781;BME280;59514;48.810;2.134;2022-11-09T10:23:38;99955.09;;;13.16;88.49
70781;BME280;59514;48.810;2.134;2022-11-09T10:26:17;99959.91;;;13.14;87.92
70781;BME280;59514;48.810;2.134;2022-11-09T10:28:49;99965.88;;;13.16;87.42
70781;BME280;59514;48.810;2.134;2022-11-09T10:31:19;99957.34;;;13.24;86.45
70781;BME280;59514;48.810;2.134;2022-11-09T10:33:50;99955.00;;;13.32;86.72
70781;BME280;59514;48.810;2.134;2022-11-09T10:36:36;99968.25;;;13.34;85.03
70781;BME280;59514;48.810;2.134;2022-11-09T10:39:07;99969.03;;;13.34;85.11
70781;BME280;59514;48.810;2.134;2022-11-09T10:41:43;99960.72;;;13.36;85.54
70781;BME280;59514;48.810;2.134;2022-11-09T10:44:13;99969.38;;;13.38;84.75
70781;BME280;59514;48.810;2.134;2022-11-09T10:49:32;99989.59;;;13.40;84.12
70781;BME280;59514;48.810;2.134;2022-11-09T10:51:58;99972.09;;;13.43;83.99
70781;BME280;59514;48.810;2.134;2022-11-09T10:54:29;99971.91;;;13.49;83.29
70781;BME280;59514;48.810;2.134;2022-11-09T10:57:07;99980.94;;;13.60;83.32
70781;BME280;59514;48.810;2.134;2022-11-09T10:59:45;99988.13;;;13.54;82.69
70781;BME280;59514;48.810;2.134;2022-11-09T11:07:43;99979.44;;;13.74;80.47
70781;BME280;59514;48.810;2.134;2022-11-09T11:12:44;99981.19;;;13.85;80.16
70781;BME280;59514;48.810;2.134;2022-11-09T11:15:35;99981.56;;;13.99;79.24
70781;BME280;59514;48.810;2.134;2022-11-09T11:18:04;99975.75;;;14.12;78.57
70781;BME280;59514;48.810;2.134;2022-11-09T11:23:15;99974.38;;;14.09;78.37
70781;BME280;59514;48.810;2.134;2022-11-09T11:28:51;99973.84;;;14.12;78.45
70781;BME280;59514;48.810;2.134;2022-11-09T11:31:19;99977.66;;;14.16;78.42
70781;BME280;59514;48.810;2.134;2022-11-09T11:33:45;99982.50;;;14.14;78.21
70781;BME280;59514;48.810;2.134;2022-11-09T11:36:30;99991.72;;;14.18;77.54
70781;BME280;59514;48.810;2.134;2022-11-09T11:39:33;99999.56;;;14.20;77.45
70781;BME280;59514;48.810;2.134;2022-11-09T11:56:12;99995.25;;;14.50;75.27
70781;BME280;59514;48.810;2.134;2022-11-09T11:58:52;100001.19;;;14.47;74.47
70781;BME280;59514;48.810;2.134;2022-11-09T12:01:47;100006.50;;;14.37;74.75
70781;BME280;59514;48.810;2.134;2022-11-09T12:18:04;99990.56;;;14.78;73.84
70781;BME280;59514;48.810;2.134;2022-11-09T12:20:41;99993.88;;;14.90;71.58
70781;BME280;59514;48.810;2.134;2022-11-09T12:24:05;99992.75;;;14.86;72.65
70781;BME280;59514;48.810;2.134;2022-11-09T12:26:48;99997.34;;;14.80;72.45
70781;BME280;59514;48.810;2.134;2022-11-09T12:29:20;100009.91;;;14.59;72.57
70781;BME280;59514;48.810;2.134;2022-11-09T12:32:16;100009.31;;;14.52;72.67
70781;BME280;59514;48.810;2.134;2022-11-09T12:34:48;100010.34;;;14.46;73.47
70781;BME280;59514;48.810;2.134;2022-11-09T12:37:32;100005.91;;;14.67;73.02
70781;BME280;59514;48.810;2.134;2022-11-09T12:40:12;100007.25;;;14.64;73.50
70781;BME280;59514;48.810;2.134;2022-11-09T12:43:00;100008.31;;;14.63;73.14
70781;BME280;59514;48.810;2.134;2022-11-09T12:45:36;100004.59;;;14.75;73.03
70781;BME280;59514;48.810;2.134;2022-11-09T12:48:14;100010.44;;;15.03;72.23
70781;BME280;59514;48.810;2.134;2022-11-09T12:50:40;100002.03;;;15.00;70.66
70781;BME280;59514;48.810;2.134;2022-11-09T12:53:07;100016.09;;;14.97;70.42
70781;BME280;59514;48.810;2.134;2022-11-09T12:58:28;100021.50;;;14.97;70.51
70781;BME280;59514;48.810;2.134;2022-11-09T13:01:02;100021.38;;;14.82;69.37
70781;BME280;59514;48.810;2.134;2022-11-09T13:03:30;100027.59;;;14.77;69.28
70781;BME280;59514;48.810;2.134;2022-11-09T13:08:37;100024.81;;;14.67;70.30
70781;BME280;59514;48.810;2.134;2022-11-09T13:13:42;100026.72;;;14.66;70.63
70781;BME280;59514;48.810;2.134;2022-11-09T13:18:50;100021.59;;;14.70;69.18
70781;BME280;59514;48.810;2.134;2022-11-09T13:23:48;100030.84;;;14.79;68.42
70781;BME280;59514;48.810;2.134;2022-11-09T13:29:23;100030.47;;;14.65;68.14
70781;BME280;59514;48.810;2.134;2022-11-09T13:47:58;100035.19;;;15.27;65.60
70781;BME280;59514;48.810;2.134;2022-11-09T13:50:26;100043.25;;;15.17;65.79
70781;BME280;59514;48.810;2.134;2022-11-09T13:52:54;100041.09;;;15.24;65.92
70781;BME280;59514;48.810;2.134;2022-11-09T13:55:35;100049.28;;;15.34;65.58
70781;BME280;59514;48.810;2.134;2022-11-09T13:58:33;100051.97;;;15.29;65.83
70781;BME280;59514;48.810;2.134;2022-11-09T14:01:00;100058.97;;;15.30;66.90
70781;BME280;59514;48.810;2.134;2022-11-09T14:03:28;100065.28;;;15.40;66.27
70781;BME280;59514;48.810;2.134;2022-11-09T14:05:56;100069.66;;;15.46;66.27
70781;BME280;59514;48.810;2.134;2022-11-09T14:08:26;100060.25;;;15.64;65.78
70781;BME280;59514;48.810;2.134;2022-11-09T14:21:58;100075.19;;;15.77;64.30
70781;BME280;59514;48.810;2.134;2022-11-09T14:24:28;100075.94;;;15.62;64.93
70781;BME280;59514;48.810;2.134;2022-11-09T14:27:21;100085.16;;;15.66;64.35
70781;BME280;59514;48.810;2.134;2022-11-09T14:29:58;100093.75;;;15.53;64.65
70781;BME280;59514;48.810;2.134;2022-11-09T14:35:10;100097.59;;;15.62;64.80
70781;BME280;59514;48.810;2.134;2022-11-09T14:37:42;100105.25;;;15.85;63.71
70781;BME280;59514;48.810;2.134;2022-11-09T14:40:18;100105.88;;;16.02;63.51
70781;BME280;59514;48.810;2.134;2022-11-09T14:45:47;100112.88;;;16.03;63.88
70781;BME280;59514;48.810;2.134;2022-11-09T14:48:18;100121.66;;;15.59;65.05
70781;BME280;59514;48.810;2.134;2022-11-09T14:50:44;100115.00;;;15.34;65.18
70781;BME280;59514;48.810;2.134;2022-11-09T14:53:18;100124.31;;;15.12;65.09
70781;BME280;59514;48.810;2.134;2022-11-09T14:55:49;100128.06;;;15.06;65.37